UPSVAC Airport Information Service

Omaha Eppley Airfield

ICAO: KOMA Country: United States
Latitude: 41.3032 Longitude: -95.894
Latest Arrival : UPS43 (KSDF-KOMA) Latest Departure : UPS113 (KOMA-KSDF)


WX CaptureLIVE
Data provided by noaa.gov | Fetched at 12:58:07

METAR : KOMA 141152Z 31008KT 10SM CLR M01/M05 A3028 RMK AO2 SLP258 T10061050 10033 21006 53003

TAF : KOMA 141120Z 1412/1512 31010KT P6SM SKC FM141500 32012G21KT P6SM SCT050 SCT150 FM142300 34010KT P6SM FEW050 SCT150 FM150200 34006KT P6SM FEW150


Runway Data for KOMA
Data provided by openaviationdata.com

Runway ID Mag Var Hdg Length Elevation Surface ILS Freq ILS Id ILS Slope
14L 5 139° 7019 ft 984 ft Concrete -- -- --
14R 5 139° 9501 ft 984 ft Concrete 110.3 IOMA 3
18 5 175° 8158 ft 984 ft Asphalt 110.9 IPPY 3
32L 5 319° 9501 ft 984 ft Concrete 111.9 IENF 3
32R 5 319° 7019 ft 984 ft Concrete 111.15 IEDI 3
36 5 355° 8158 ft 984 ft Asphalt 110.7 IOGN 3

Omaha Eppley Airfield, United States
Use only for reference purposes



Not for navigational purposes.